Time;durP1;ratioP1;P1;durP2;ratioP2;P2;SDS_P1;SDS_P2;PMS_P1;PMS_P2;Temp;Humidity;BMP_temperature;BMP_pressure;BME280_temperature;BME280_humidity;BME280_pressure;Samples;Min_cycle;Max_cycle;Signal;HPM_P1;HPM_P2
2021/01/21 00:01:06;;;;;;;4.05;2.58;;;6.20;99.90;;;;;;5067160;28;20028;-77
2021/01/21 00:03:33;;;;;;;5.78;3.25;;;6.10;99.90;;;;;;5048819;28;20104;-73
2021/01/21 00:06:02;;;;;;;3.55;2.15;;;6.10;99.90;;;;;;5040064;28;20056;-73
2021/01/21 00:08:29;;;;;;;2.67;2.20;;;6.10;99.90;;;;;;5043880;28;20048;-75
2021/01/21 00:11:01;;;;;;;3.38;2.45;;;6.10;99.90;;;;;;5038708;28;20056;-75
2021/01/21 00:13:26;;;;;;;;;;;6.00;99.90;;;;;;5063728;28;20385;-74
2021/01/21 00:15:53;;;;;;;3.03;1.90;;;6.00;99.90;;;;;;5053304;28;20003;-74
2021/01/21 00:18:20;;;;;;;5.15;2.75;;;6.00;99.90;;;;;;5051595;28;20116;-74
2021/01/21 00:20:47;;;;;;;4.95;3.45;;;6.00;99.90;;;;;;5032992;28;20082;-74
2021/01/21 00:23:12;;;;;;;4.93;2.72;;;6.00;99.90;;;;;;5037309;28;20371;-73
2021/01/21 00:25:38;;;;;;;4.60;2.40;;;6.00;99.90;;;;;;5049319;28;20540;-74
2021/01/21 00:28:04;;;;;;;4.10;2.35;;;5.90;99.90;;;;;;5062661;28;20029;-73
2021/01/21 00:30:29;;;;;;;5.32;2.30;;;6.00;99.90;;;;;;5051810;28;20057;-74
2021/01/21 00:32:55;;;;;;;3.75;2.15;;;5.90;99.90;;;;;;5052243;28;20041;-75
2021/01/21 00:35:22;;;;;;;5.45;2.67;;;5.80;99.90;;;;;;5058640;28;20108;-74
2021/01/21 00:37:47;;;;;;;3.10;2.28;;;5.90;99.90;;;;;;5046553;28;20037;-73
2021/01/21 00:40:14;;;;;;;4.43;2.40;;;5.70;99.90;;;;;;5049496;28;20489;-74
2021/01/21 00:42:39;;;;;;;3.03;2.13;;;5.80;99.90;;;;;;5039823;28;20038;-73
2021/01/21 00:45:09;;;;;;;4.00;2.42;;;5.80;99.90;;;;;;5034634;28;20021;-73
2021/01/21 00:47:36;;;;;;;4.65;2.25;;;5.80;99.90;;;;;;5040955;28;20025;-74
2021/01/21 00:50:02;;;;;;;3.58;2.15;;;5.70;99.90;;;;;;5019682;28;20049;-74
2021/01/21 00:52:28;;;;;;;4.18;2.20;;;5.70;99.90;;;;;;5039795;28;20503;-74
2021/01/21 00:54:54;;;;;;;4.78;2.25;;;5.70;99.90;;;;;;5039920;28;20105;-78
2021/01/21 00:57:22;;;;;;;4.18;1.98;;;5.60;99.90;;;;;;5040455;28;20026;-76
2021/01/21 00:59:47;;;;;;;3.03;2.38;;;5.60;99.90;;;;;;5029694;28;20037;-74
2021/01/21 01:02:14;;;;;;;3.63;2.40;;;5.70;99.90;;;;;;5062205;28;20379;-75
2021/01/21 01:04:40;;;;;;;3.08;2.25;;;5.70;99.90;;;;;;5042791;28;20497;-73
2021/01/21 01:07:10;;;;;;;4.53;2.33;;;5.60;99.90;;;;;;5034640;28;20097;-77
2021/01/21 01:09:35;;;;;;;4.72;2.58;;;5.60;99.90;;;;;;5035945;28;20029;-74
2021/01/21 01:12:01;;;;;;;3.03;2.03;;;5.60;99.90;;;;;;5045184;28;20032;-74
2021/01/21 01:14:29;;;;;;;4.38;2.53;;;5.60;99.90;;;;;;5058058;28;20029;-73
2021/01/21 01:16:54;;;;;;;5.53;2.38;;;5.70;99.90;;;;;;5043601;28;20031;-74
2021/01/21 01:19:20;;;;;;;4.35;2.20;;;5.80;99.90;;;;;;5036043;28;20096;-74
2021/01/21 01:21:46;;;;;;;4.47;2.10;;;5.90;99.90;;;;;;5054209;28;20033;-75
2021/01/21 01:24:12;;;;;;;3.08;2.00;;;5.80;99.90;;;;;;5051558;28;20048;-74
2021/01/21 01:26:38;;;;;;;5.65;2.53;;;5.90;99.90;;;;;;5041856;28;20052;-74
2021/01/21 01:29:04;;;;;;;4.20;2.40;;;5.90;99.90;;;;;;5047775;28;20420;-74
2021/01/21 01:31:29;;;;;;;3.53;2.17;;;5.90;99.90;;;;;;5047049;28;20021;-74
2021/01/21 01:33:55;;;;;;;3.33;2.25;;;5.90;99.90;;;;;;5055155;28;20060;-72
2021/01/21 01:36:20;;;;;;;4.68;2.40;;;5.90;99.90;;;;;;5049398;28;20020;-74
2021/01/21 01:38:46;;;;;;;3.17;2.20;;;5.90;99.90;;;;;;5053514;28;20072;-74
2021/01/21 01:41:13;;;;;;;3.80;2.20;;;5.90;99.90;;;;;;5053222;28;20029;-73
2021/01/21 01:43:38;;;;;;;3.70;2.10;;;6.00;99.90;;;;;;5048618;28;20093;-74
2021/01/21 01:46:06;;;;;;;3.67;2.13;;;6.10;99.90;;;;;;5024294;28;20033;-74
2021/01/21 01:48:32;;;;;;;4.00;2.50;;;6.10;99.90;;;;;;5034926;28;20371;-76
2021/01/21 01:51:02;;;;;;;5.75;3.35;;;6.20;99.90;;;;;;5052482;28;20108;-74
2021/01/21 01:53:33;;;;;;;5.93;2.92;;;6.20;99.90;;;;;;5032692;28;20033;-73
2021/01/21 01:55:59;;;;;;;4.97;2.20;;;6.20;99.80;;;;;;5047371;28;20032;-73
2021/01/21 01:58:26;;;;;;;4.28;2.20;;;6.20;99.50;;;;;;5038430;28;20017;-74
2021/01/21 02:00:54;;;;;;;4.93;3.13;;;6.20;99.50;;;;;;5060894;28;20056;-74
2021/01/21 02:03:20;;;;;;;4.28;2.78;;;6.30;99.70;;;;;;5042827;28;20037;-75
2021/01/21 02:05:45;;;;;;;3.60;2.40;;;6.20;99.40;;;;;;5042609;28;20412;-74
2021/01/21 02:08:11;;;;;;;3.70;1.95;;;6.20;99.40;;;;;;5056737;28;20107;-74
2021/01/21 02:10:36;;;;;;;4.85;2.55;;;6.20;99.30;;;;;;5048598;28;20037;-73
2021/01/21 02:13:20;;;;;;;6.03;2.70;;;6.30;99.30;;;;;;5051275;28;20021;-73
2021/01/21 02:16:08;;;;;;;5.30;2.47;;;6.30;99.30;;;;;;5051404;28;20030;-74
2021/01/21 02:19:12;;;;;;;4.03;2.40;;;6.30;99.10;;;;;;5052634;28;20037;-73
2021/01/21 02:22:12;;;;;;;3.38;2.00;;;6.30;99.00;;;;;;4977432;28;20050;-74
2021/01/21 02:25:15;;;;;;;3.20;2.10;;;6.30;98.70;;;;;;5046664;28;20038;-73
2021/01/21 02:28:03;;;;;;;4.55;2.17;;;6.40;98.70;;;;;;5054548;28;20032;-73
2021/01/21 02:30:55;;;;;;;2.88;2.08;;;6.40;98.90;;;;;;5062697;28;20025;-75
2021/01/21 02:33:59;;;;;;;2.90;1.83;;;6.30;99.20;;;;;;5050522;28;20021;-73
2021/01/21 02:36:35;;;;;;;3.75;2.13;;;6.30;99.30;;;;;;5066746;28;20432;-74
2021/01/21 02:39:02;;;;;;;4.82;2.30;;;6.30;99.20;;;;;;5072419;28;20416;-74
2021/01/21 02:41:30;;;;;;;2.70;1.95;;;6.20;99.00;;;;;;5072519;28;20092;-76
2021/01/21 02:43:55;;;;;;;7.07;3.78;;;6.30;99.00;;;;;;5062186;28;20057;-73
2021/01/21 02:46:22;;;;;;;11.80;5.53;;;6.40;98.80;;;;;;5054284;28;20036;-73
2021/01/21 02:48:50;;;;;;;2.75;2.00;;;6.50;98.70;;;;;;5061974;28;20036;-73
2021/01/21 02:52:01;;;;;;;4.20;1.98;;;6.50;98.20;;;;;;5038184;28;20025;-74
2021/01/21 02:54:55;;;;;;;3.00;2.03;;;6.50;98.00;;;;;;5021000;28;20038;-74
2021/01/21 02:57:21;;;;;;;3.17;1.70;;;6.50;97.90;;;;;;5021595;28;20021;-73
2021/01/21 02:59:47;;;;;;;3.40;1.90;;;6.60;97.60;;;;;;5046123;28;20028;-73
2021/01/21 03:02:14;;;;;;;3.50;2.10;;;6.60;97.70;;;;;;5062206;28;20029;-74
2021/01/21 03:04:40;;;;;;;4.05;2.30;;;6.50;98.10;;;;;;5043781;28;20097;-76
2021/01/21 03:07:10;;;;;;;4.45;2.92;;;6.60;97.90;;;;;;5064059;28;20021;-73
2021/01/21 03:09:36;;;;;;;2.03;1.45;;;6.60;97.90;;;;;;5054691;28;20025;-74
2021/01/21 03:12:16;;;;;;;2.10;1.33;;;6.70;96.90;;;;;;5041880;28;20033;-74
2021/01/21 03:14:41;;;;;;;1.95;1.38;;;6.70;97.10;;;;;;5054904;28;20048;-75
2021/01/21 03:17:07;;;;;;;1.88;1.52;;;6.70;97.20;;;;;;5057040;28;20032;-75
2021/01/21 03:19:33;;;;;;;2.35;1.60;;;6.70;97.80;;;;;;5045167;28;20037;-73
2021/01/21 03:21:58;;;;;;;2.95;1.48;;;6.70;96.70;;;;;;5062806;28;20027;-74
2021/01/21 03:24:24;;;;;;;3.83;1.75;;;6.70;96.90;;;;;;5038278;28;20041;-74
2021/01/21 03:26:50;;;;;;;3.42;1.85;;;6.80;96.40;;;;;;5048710;28;20033;-74
2021/01/21 03:29:16;;;;;;;1.90;1.52;;;6.80;96.60;;;;;;5035248;28;20538;-74
2021/01/21 03:31:41;;;;;;;3.20;2.03;;;6.70;96.80;;;;;;5056073;28;20037;-75
2021/01/21 03:34:06;;;;;;;3.20;1.85;;;6.70;96.80;;;;;;5057990;28;20632;-74
2021/01/21 03:36:32;;;;;;;2.38;1.73;;;6.70;97.40;;;;;;5052886;28;20025;-74
2021/01/21 03:38:57;;;;;;;4.47;1.65;;;6.70;97.30;;;;;;5052540;28;20060;-76
2021/01/21 03:41:23;;;;;;;2.30;1.67;;;6.70;97.20;;;;;;5052608;28;20021;-76
2021/01/21 03:43:48;;;;;;;4.10;1.90;;;6.70;97.70;;;;;;5050879;28;20381;-75
2021/01/21 03:46:14;;;;;;;3.05;1.63;;;6.60;97.50;;;;;;5051213;28;20028;-74
2021/01/21 03:48:40;;;;;;;3.15;1.70;;;6.60;97.70;;;;;;5052259;28;20029;-74
2021/01/21 03:51:05;;;;;;;3.63;1.58;;;6.70;97.60;;;;;;5053371;28;20071;-73
2021/01/21 03:53:31;;;;;;;2.53;1.52;;;6.60;97.80;;;;;;5054143;28;20037;-77
2021/01/21 03:55:56;;;;;;;2.78;2.00;;;6.60;97.60;;;;;;5056133;28;20104;-74
2021/01/21 03:58:22;;;;;;;2.00;1.42;;;6.70;97.70;;;;;;5054838;28;20032;-75
2021/01/21 04:00:47;;;;;;;3.22;1.98;;;6.60;97.50;;;;;;5056893;28;20024;-71
2021/01/21 04:03:13;;;;;;;2.42;1.48;;;6.70;97.50;;;;;;5054969;28;20044;-75
2021/01/21 04:05:38;;;;;;;3.20;1.40;;;6.70;97.20;;;;;;5057206;28;20047;-74
2021/01/21 04:08:04;;;;;;;2.97;1.45;;;6.70;97.60;;;;;;5059343;28;20047;-75
2021/01/21 04:10:30;;;;;;;2.10;1.50;;;6.70;97.20;;;;;;5057863;28;20071;-73
2021/01/21 04:12:55;;;;;;;1.95;1.40;;;6.70;97.50;;;;;;5055021;28;20030;-73
2021/01/21 04:15:20;;;;;;;3.55;1.45;;;8.70;98.00;;;;;;5042294;28;20029;-72
2021/01/21 04:17:46;;;;;;;4.72;1.50;;;6.70;97.50;;;;;;5051129;28;20025;-74
2021/01/21 04:20:12;;;;;;;1.73;1.42;;;6.70;97.30;;;;;;5048293;28;20102;-74
2021/01/21 04:22:37;;;;;;;4.30;1.83;;;6.70;97.50;;;;;;5053001;28;20040;-74
2021/01/21 04:25:03;;;;;;;2.78;1.77;;;6.70;97.90;;;;;;5054062;28;20025;-75
2021/01/21 04:27:29;;;;;;;1.77;1.50;;;6.70;98.10;;;;;;5069102;28;20055;-75
2021/01/21 04:29:54;;;;;;;2.05;1.48;;;6.70;97.80;;;;;;5066866;28;20033;-78
2021/01/21 04:32:20;;;;;;;2.83;1.60;;;;;;;;;;5046084;28;20049;-73
2021/01/21 04:34:46;;;;;;;4.13;1.33;;;6.80;97.00;;;;;;5056267;28;20029;-73
2021/01/21 04:37:13;;;;;;;2.45;1.50;;;6.90;97.10;;;;;;5067799;28;20028;-74
2021/01/21 04:39:38;;;;;;;1.80;1.38;;;6.80;97.50;;;;;;5068199;28;20029;-74
2021/01/21 04:42:05;;;;;;;2.92;1.95;;;6.80;96.90;;;;;;5069560;28;20029;-74
2021/01/21 04:44:30;;;;;;;3.33;1.60;;;6.80;97.20;;;;;;5060216;28;20064;-73
2021/01/21 04:46:58;;;;;;;2.58;1.60;;;6.80;97.00;;;;;;5067283;28;20029;-74
2021/01/21 04:49:25;;;;;;;3.33;1.83;;;6.80;97.20;;;;;;5069646;28;20029;-73
2021/01/21 04:51:52;;;;;;;2.40;1.70;;;6.80;97.10;;;;;;5067514;28;20039;-73
2021/01/21 04:54:27;;;;;;;3.10;2.30;;;6.80;97.20;;;;;;5065236;28;20029;-73
2021/01/21 04:56:55;;;;;;;5.63;1.83;;;6.80;97.20;;;;;;5070361;28;20028;-74
2021/01/21 04:59:22;;;;;;;3.63;1.90;;;6.80;97.30;;;;;;5069457;28;20017;-75
2021/01/21 05:01:48;;;;;;;3.08;2.00;;;6.90;97.30;;;;;;5072956;28;20048;-73
2021/01/21 05:04:15;;;;;;;3.00;1.75;;;6.80;97.50;;;;;;5062884;28;20038;-76
2021/01/21 05:06:40;;;;;;;3.17;1.80;;;6.80;97.70;;;;;;5048804;28;20049;-74
2021/01/21 05:09:06;;;;;;;2.22;1.83;;;6.70;98.30;;;;;;5038383;28;20037;-74
2021/01/21 05:11:32;;;;;;;3.88;2.20;;;6.70;97.70;;;;;;5050375;28;20005;-73
2021/01/21 05:13:57;;;;;;;3.35;1.90;;;6.70;97.80;;;;;;5069551;28;20033;-74
2021/01/21 05:16:23;;;;;;;3.13;2.45;;;6.80;97.50;;;;;;5061505;28;20037;-73
2021/01/21 05:18:50;;;;;;;4.88;2.55;;;6.80;97.60;;;;;;5062748;28;20029;-73
2021/01/21 05:21:16;;;;;;;2.78;1.90;;;6.80;97.70;;;;;;5060885;28;20028;-75
2021/01/21 05:23:42;;;;;;;3.78;2.30;;;6.70;97.80;;;;;;5062724;28;20056;-73
2021/01/21 05:26:11;;;;;;;4.13;2.10;;;6.80;98.10;;;;;;5063941;28;20116;-74
2021/01/21 05:28:37;;;;;;;3.08;2.10;;;6.70;98.20;;;;;;5062105;28;20495;-74
2021/01/21 05:31:03;;;;;;;3.30;2.33;;;6.70;98.20;;;;;;5058954;28;20021;-75
2021/01/21 05:33:29;;;;;;;4.47;2.50;;;6.70;98.00;;;;;;5072365;28;20043;-73
2021/01/21 05:35:56;;;;;;;3.85;2.40;;;6.70;98.00;;;;;;5048021;28;20536;-75
2021/01/21 05:38:22;;;;;;;4.13;2.80;;;6.80;97.80;;;;;;5040229;28;20053;-74
2021/01/21 05:40:47;;;;;;;4.20;2.83;;;6.80;97.90;;;;;;5063020;28;20033;-73
2021/01/21 05:43:15;;;;;;;4.35;2.70;;;6.90;97.50;;;;;;5071119;28;20033;-73
2021/01/21 05:45:46;;;;;;;4.53;2.60;;;6.90;97.40;;;;;;5052990;28;20033;-73
2021/01/21 05:48:13;;;;;;;7.75;4.18;;;6.90;97.60;;;;;;5066032;28;20085;-75
2021/01/21 05:50:39;;;;;;;9.05;3.97;;;6.80;98.40;;;;;;5057614;28;20076;-74
2021/01/21 05:53:09;;;;;;;7.35;3.67;;;6.80;98.00;;;;;;5063887;28;20021;-75
2021/01/21 05:55:40;;;;;;;6.85;3.42;;;6.70;98.30;;;;;;5055875;28;20431;-74
2021/01/21 05:58:06;;;;;;;;;;;6.70;98.90;;;;;;5034575;28;20040;-74
2021/01/21 06:00:40;;;;;;;6.20;3.22;;;6.70;98.10;;;;;;5057215;28;19909;-74
2021/01/21 06:03:08;;;;;;;4.72;3.00;;;6.80;98.20;;;;;;5044970;28;20135;-75
2021/01/21 06:05:35;;;;;;;6.75;3.72;;;6.70;98.30;;;;;;5061383;28;20025;-75
2021/01/21 06:08:03;;;;;;;5.38;3.33;;;6.70;98.30;;;;;;5061230;28;20029;-73
2021/01/21 06:10:29;;;;;;;4.38;3.10;;;6.80;98.60;;;;;;5063275;28;20021;-72
2021/01/21 06:12:55;;;;;;;6.07;3.10;;;6.80;98.40;;;;;;5061271;28;20032;-73
2021/01/21 06:15:21;;;;;;;5.50;2.97;;;6.80;98.90;;;;;;5060173;28;20030;-74
2021/01/21 06:17:48;;;;;;;5.32;3.28;;;6.70;98.70;;;;;;5068231;28;20060;-74
2021/01/21 06:20:15;;;;;;;5.85;3.30;;;6.70;99.00;;;;;;5059875;28;20056;-74
2021/01/21 06:22:46;;;;;;;7.07;3.38;;;6.80;98.20;;;;;;5070088;28;20048;-72
2021/01/21 06:25:19;;;;;;;10.18;3.65;;;6.80;98.40;;;;;;5065059;28;20044;-75
2021/01/21 06:27:46;;;;;;;5.28;3.28;;;6.70;98.80;;;;;;5040215;28;20033;-73
2021/01/21 06:30:18;;;;;;;4.20;3.20;;;6.80;98.30;;;;;;5064165;28;20048;-74
2021/01/21 06:33:10;;;;;;;6.35;3.38;;;6.80;98.20;;;;;;5066547;28;20048;-75
2021/01/21 06:35:41;;;;;;;5.13;3.58;;;6.80;98.20;;;;;;5049601;28;20044;-76
2021/01/21 06:38:16;;;;;;;6.20;3.78;;;6.90;97.60;;;;;;5070587;28;20060;-76
2021/01/21 06:40:53;;;;;;;9.80;4.72;;;6.80;97.80;;;;;;5046290;28;20036;-77
2021/01/21 06:43:23;;;;;;;6.00;3.33;;;7.00;96.80;;;;;;5055259;28;20071;-76
2021/01/21 06:45:50;;;;;;;7.68;3.92;;;7.00;96.90;;;;;;5067116;28;20081;-74
2021/01/21 06:48:16;;;;;;;5.25;3.13;;;7.00;96.30;;;;;;5065171;28;20029;-74
2021/01/21 06:50:44;;;;;;;4.97;2.90;;;7.10;95.80;;;;;;5065095;28;20095;-74
2021/01/21 06:53:11;;;;;;;6.20;3.55;;;7.10;96.00;;;;;;5062665;28;20120;-74
2021/01/21 06:55:40;;;;;;;7.60;3.15;;;7.10;96.20;;;;;;5064680;28;20064;-75
2021/01/21 06:58:07;;;;;;;6.15;3.75;;;7.20;95.20;;;;;;5061390;28;20033;-76
2021/01/21 07:00:45;;;;;;;4.53;3.17;;;7.30;94.30;;;;;;5057448;28;20086;-75
2021/01/21 07:03:30;;;;;;;5.45;2.83;;;7.40;94.60;;;;;;5063384;28;20534;-74
2021/01/21 07:06:08;;;;;;;3.55;2.50;;;7.40;94.30;;;;;;5057409;28;20465;-73
2021/01/21 07:09:03;;;;;;;5.13;3.03;;;7.40;94.40;;;;;;5060586;28;20045;-74
2021/01/21 07:11:29;;;;;;;6.07;3.03;;;;;;;;;;5041611;28;20067;-74
2021/01/21 07:13:56;;;;;;;4.70;3.17;;;7.50;93.20;;;;;;5059613;28;20021;-74
2021/01/21 07:16:22;;;;;;;3.33;2.17;;;7.50;93.20;;;;;;5053201;28;20071;-74
2021/01/21 07:18:48;;;;;;;6.03;3.08;;;7.50;92.30;;;;;;5029995;28;20035;-77
2021/01/21 07:21:18;;;;;;;5.20;2.72;;;7.60;92.50;;;;;;5048609;28;20105;-75
2021/01/21 07:23:46;;;;;;;6.05;2.45;;;7.70;91.30;;;;;;5044509;28;20444;-74
2021/01/21 07:26:25;;;;;;;2.95;2.63;;;8.00;88.20;;;;;;5028563;28;20049;-73
2021/01/21 07:29:05;;;;;;;7.97;2.83;;;8.00;89.20;;;;;;5046046;28;20036;-74
2021/01/21 07:31:56;;;;;;;3.35;2.40;;;8.00;90.10;;;;;;5044386;28;20030;-76
2021/01/21 07:34:41;;;;;;;3.28;2.13;;;8.00;88.20;;;;;;5042802;28;20021;-75
2021/01/21 07:37:17;;;;;;;6.65;2.92;;;8.00;88.60;;;;;;5044813;28;20030;-73
2021/01/21 07:39:59;;;;;;;4.97;2.10;;;8.00;89.70;;;;;;5044377;28;20033;-75
2021/01/21 07:42:33;;;;;;;3.97;2.38;;;8.10;89.10;;;;;;5042516;28;20021;-73
2021/01/21 07:45:06;;;;;;;3.60;1.95;;;8.10;88.60;;;;;;5041876;28;20072;-77
2021/01/21 07:47:40;;;;;;;3.55;2.13;;;8.10;88.10;;;;;;5044844;28;20028;-75
2021/01/21 07:50:26;;;;;;;6.90;2.42;;;8.20;88.20;;;;;;5044174;28;20358;-80
2021/01/21 07:52:54;;;;;;;3.67;2.47;;;8.20;87.90;;;;;;5046897;28;20029;-75
2021/01/21 07:55:39;;;;;;;3.50;2.08;;;8.20;88.10;;;;;;5042164;28;20053;-75
2021/01/21 07:58:37;;;;;;;5.18;2.40;;;8.20;87.80;;;;;;5043745;28;20022;-74
2021/01/21 08:01:10;;;;;;;2.95;1.90;;;8.30;88.40;;;;;;5033829;28;20044;-74
2021/01/21 08:03:46;;;;;;;3.58;2.50;;;8.30;87.40;;;;;;5044308;28;20500;-76
2021/01/21 08:06:12;;;;;;;5.00;2.42;;;8.40;86.10;;;;;;5030617;28;20488;-76
2021/01/21 08:08:40;;;;;;;5.22;1.90;;;8.50;85.10;;;;;;5046562;28;20021;-75
2021/01/21 08:11:08;;;;;;;5.70;2.58;;;8.60;87.00;;;;;;5047345;28;20049;-77
2021/01/21 08:13:34;;;;;;;4.10;2.20;;;8.50;85.70;;;;;;5047849;28;20029;-77
2021/01/21 08:16:00;;;;;;;3.55;2.03;;;8.50;87.20;;;;;;5027814;28;20428;-78
2021/01/21 08:18:26;;;;;;;6.70;2.47;;;8.60;85.90;;;;;;5047532;28;20059;-73
2021/01/21 08:20:51;;;;;;;6.10;3.45;;;8.70;85.80;;;;;;5043300;28;20037;-76
2021/01/21 08:23:17;;;;;;;5.35;2.63;;;8.80;83.30;;;;;;5049255;28;20026;-74
2021/01/21 08:25:47;;;;;;;3.65;2.25;;;8.80;83.60;;;;;;5057608;28;20036;-78
2021/01/21 08:28:18;;;;;;;3.35;2.38;;;8.90;85.50;;;;;;5043297;28;20025;-76
2021/01/21 08:30:45;;;;;;;7.47;2.10;;;8.90;85.10;;;;;;5048720;28;20108;-75
2021/01/21 08:33:25;;;;;;;4.28;2.08;;;8.90;83.60;;;;;;5044811;28;20088;-76
2021/01/21 08:35:55;;;;;;;4.17;2.30;;;9.00;83.60;;;;;;5044718;28;20036;-75
2021/01/21 08:38:23;;;;;;;3.30;1.98;;;9.10;81.80;;;;;;5047132;28;20116;-82
2021/01/21 08:40:52;;;;;;;4.28;2.10;;;9.20;82.00;;;;;;5021406;28;20456;-76
2021/01/21 08:43:19;;;;;;;5.93;2.97;;;9.30;80.00;;;;;;5045774;28;20072;-75
2021/01/21 08:45:46;;;;;;;2.63;1.85;;;9.40;79.10;;;;;;5021825;28;20029;-80
2021/01/21 08:48:26;;;;;;;4.90;2.20;;;9.40;79.70;;;;;;5044607;28;20031;-75
2021/01/21 08:50:52;;;;;;;4.13;2.72;;;9.40;80.30;;;;;;5044772;28;20022;-78
2021/01/21 08:53:27;;;;;;;2.55;2.00;;;9.30;80.80;;;;;;5047937;28;20138;-78
2021/01/21 08:55:56;;;;;;;3.30;1.92;;;9.40;79.90;;;;;;5049015;28;20385;-79
2021/01/21 08:58:30;;;;;;;4.05;2.38;;;9.30;82.10;;;;;;5045070;28;20021;-76
2021/01/21 09:01:07;;;;;;;4.32;2.70;;;9.20;81.60;;;;;;5048840;28;20021;-75
2021/01/21 09:03:38;;;;;;;4.05;2.17;;;9.30;81.30;;;;;;5045573;28;20082;-75
2021/01/21 09:06:11;;;;;;;4.22;2.30;;;9.20;82.30;;;;;;5030513;28;20035;-75
2021/01/21 09:08:56;;;;;;;4.85;2.53;;;9.30;80.20;;;;;;5046161;28;20029;-78
2021/01/21 09:11:28;;;;;;;6.85;2.50;;;9.30;81.40;;;;;;5036031;28;20049;-74
2021/01/21 09:13:54;;;;;;;4.95;2.92;;;9.40;81.00;;;;;;5047765;28;20029;-75
2021/01/21 09:16:38;;;;;;;4.70;2.63;;;9.40;79.80;;;;;;5044268;28;20041;-74
2021/01/21 09:19:03;;;;;;;4.53;2.22;;;9.50;79.90;;;;;;5032213;28;20044;-75
2021/01/21 09:21:29;;;;;;;4.53;2.20;;;9.50;78.30;;;;;;5048460;28;20029;-75
2021/01/21 09:24:05;;;;;;;5.05;2.45;;;9.50;78.60;;;;;;5033887;28;20476;-75
2021/01/21 09:26:31;;;;;;;3.97;2.40;;;9.60;77.30;;;;;;5049661;28;20445;-76
2021/01/21 09:28:57;;;;;;;4.45;2.38;;;9.60;77.80;;;;;;5052035;28;20044;-77
2021/01/21 09:31:26;;;;;;;3.30;2.03;;;9.60;77.70;;;;;;5047750;28;20021;-78
2021/01/21 09:33:52;;;;;;;3.08;2.20;;;9.90;74.30;;;;;;5044427;28;20029;-76
2021/01/21 09:36:19;;;;;;;3.92;1.92;;;9.90;74.80;;;;;;5046307;28;20033;-75
2021/01/21 09:38:45;;;;;;;4.22;1.88;;;9.90;73.80;;;;;;5047507;28;20029;-75
2021/01/21 09:41:11;;;;;;;6.32;2.33;;;10.00;74.50;;;;;;5045824;28;20022;-78
2021/01/21 09:43:38;;;;;;;4.03;2.22;;;10.00;74.20;;;;;;5044707;28;20104;-74
2021/01/21 09:46:04;;;;;;;5.03;2.58;;;10.00;73.90;;;;;;5045618;28;20037;-76
2021/01/21 09:48:29;;;;;;;4.85;2.78;;;10.00;74.20;;;;;;5049428;28;20021;-76
2021/01/21 09:50:55;;;;;;;6.43;2.30;;;10.10;72.30;;;;;;5024669;28;20385;-75
2021/01/21 09:53:20;;;;;;;6.28;2.00;;;10.20;71.30;;;;;;5047533;28;20037;-76
2021/01/21 09:55:47;;;;;;;9.02;3.72;;;10.30;71.10;;;;;;5046566;28;20428;-75
2021/01/21 09:58:16;;;;;;;2.58;1.70;;;10.40;70.60;;;;;;5032131;28;20393;-74
2021/01/21 10:00:41;;;;;;;4.38;2.10;;;10.50;70.90;;;;;;5051812;28;20071;-73
2021/01/21 10:03:07;;;;;;;4.05;2.00;;;10.50;70.20;;;;;;5050037;28;20489;-75
2021/01/21 10:05:32;;;;;;;4.55;2.20;;;10.50;70.50;;;;;;5050414;28;20156;-75
2021/01/21 10:07:58;;;;;;;2.78;2.00;;;10.50;71.00;;;;;;5043364;28;20072;-77
2021/01/21 10:10:23;;;;;;;3.70;2.30;;;10.50;70.90;;;;;;5047501;28;20017;-77
2021/01/21 10:12:49;;;;;;;4.32;2.67;;;12.80;70.80;;;;;;5047385;28;20021;-74
2021/01/21 10:15:15;;;;;;;4.90;2.22;;;10.60;70.00;;;;;;5044438;28;20366;-76
2021/01/21 10:17:41;;;;;;;18.00;11.45;;;10.80;69.50;;;;;;5044809;28;20032;-75
2021/01/21 10:20:07;;;;;;;8.52;4.05;;;10.90;69.60;;;;;;5029083;28;20554;-78
2021/01/21 10:22:33;;;;;;;8.73;6.57;;;11.10;68.20;;;;;;5044470;28;20477;-75
2021/01/21 10:24:58;;;;;;;4.45;2.22;;;11.10;67.80;;;;;;5051622;28;20036;-77
2021/01/21 10:27:27;;;;;;;3.70;2.08;;;11.10;67.30;;;;;;5047605;28;20034;-75
2021/01/21 10:29:53;;;;;;;4.55;2.13;;;11.20;68.30;;;;;;5029054;28;20029;-78
2021/01/21 10:32:19;;;;;;;5.20;2.88;;;11.10;67.70;;;;;;5048542;28;20029;-77
2021/01/21 10:34:44;;;;;;;2.83;2.47;;;11.10;68.10;;;;;;5047293;28;20017;-74
2021/01/21 10:37:10;;;;;;;7.43;2.17;;;11.00;67.70;;;;;;5048358;28;20017;-73
2021/01/21 10:39:36;;;;;;;3.47;2.22;;;10.90;67.80;;;;;;5049738;28;20079;-74
2021/01/21 10:42:01;;;;;;;4.15;2.17;;;10.90;68.90;;;;;;5047920;28;20026;-73
2021/01/21 10:44:27;;;;;;;6.75;2.20;;;10.90;69.00;;;;;;5049460;28;20038;-74
2021/01/21 10:46:52;;;;;;;2.70;1.90;;;10.90;69.80;;;;;;5048776;28;20026;-76
2021/01/21 10:49:21;;;;;;;3.95;2.13;;;10.90;69.50;;;;;;5049647;28;20041;-74
2021/01/21 10:51:47;;;;;;;4.93;2.50;;;11.00;70.00;;;;;;5048075;28;20507;-74
2021/01/21 10:54:12;;;;;;;4.00;2.47;;;11.00;70.70;;;;;;5051069;28;20017;-74
2021/01/21 10:56:38;;;;;;;3.60;2.38;;;11.00;71.00;;;;;;5041551;28;20503;-76
2021/01/21 10:59:06;;;;;;;6.75;2.88;;;11.10;70.50;;;;;;5017422;28;20030;-75
2021/01/21 11:01:35;;;;;;;4.18;2.10;;;11.10;68.90;;;;;;5045085;28;20108;-75
2021/01/21 11:04:01;;;;;;;4.10;2.38;;;11.20;68.60;;;;;;5025996;28;20109;-77
2021/01/21 11:06:27;;;;;;;3.90;2.03;;;11.30;67.40;;;;;;5024097;28;20029;-74
2021/01/21 11:08:52;;;;;;;6.15;2.38;;;11.30;67.60;;;;;;5030188;28;20034;-74
2021/01/21 11:11:18;;;;;;;3.15;2.00;;;11.40;68.00;;;;;;5038700;28;20602;-74
2021/01/21 11:13:43;;;;;;;4.07;2.30;;;11.50;67.90;;;;;;5046701;28;20083;-75
2021/01/21 11:16:10;;;;;;;5.90;2.50;;;11.50;67.70;;;;;;5045008;28;20036;-77
2021/01/21 11:18:36;;;;;;;3.70;1.92;;;11.50;68.10;;;;;;5037281;28;20024;-72
2021/01/21 11:21:01;;;;;;;2.58;2.08;;;11.60;68.50;;;;;;5027618;28;20087;-75
2021/01/21 11:23:27;;;;;;;3.28;2.20;;;11.50;68.00;;;;;;5024328;28;20037;-73
2021/01/21 11:25:52;;;;;;;5.30;2.70;;;11.50;68.40;;;;;;5029401;28;20029;-74
2021/01/21 11:28:20;;;;;;;6.07;2.40;;;11.50;68.50;;;;;;5017780;28;20029;-74
2021/01/21 11:30:50;;;;;;;5.75;2.20;;;11.50;68.50;;;;;;5025938;28;20033;-75
2021/01/21 11:33:17;;;;;;;5.75;2.80;;;11.50;68.10;;;;;;5011673;28;20025;-78
2021/01/21 11:35:44;;;;;;;3.03;2.60;;;11.50;68.50;;;;;;5037358;28;20034;-74
2021/01/21 11:38:10;;;;;;;5.10;2.42;;;11.60;68.80;;;;;;5036640;28;20017;-75
2021/01/21 11:40:35;;;;;;;7.03;2.50;;;11.70;69.00;;;;;;5025229;28;20045;-76
2021/01/21 11:43:01;;;;;;;3.95;2.30;;;11.90;68.60;;;;;;5027691;28;20108;-76
2021/01/21 11:45:26;;;;;;;6.88;2.58;;;12.00;68.00;;;;;;5022615;28;20026;-75
2021/01/21 11:47:52;;;;;;;10.25;3.45;;;12.00;67.40;;;;;;5008558;28;20026;-76
2021/01/21 11:50:18;;;;;;;4.35;2.70;;;12.00;67.90;;;;;;5020881;28;20240;-74
2021/01/21 11:52:45;;;;;;;6.18;2.88;;;12.00;68.30;;;;;;5024067;28;20033;-74
2021/01/21 11:55:12;;;;;;;4.95;3.13;;;12.00;68.70;;;;;;5023910;28;20377;-75
2021/01/21 11:57:39;;;;;;;5.22;2.70;;;12.00;68.60;;;;;;5021754;28;20025;-73
2021/01/21 12:00:10;;;;;;;7.22;3.80;;;12.00;69.00;;;;;;5022441;28;20025;-75
2021/01/21 12:02:35;;;;;;;3.75;2.28;;;12.00;69.10;;;;;;5023816;28;20396;-74
2021/01/21 12:05:01;;;;;;;3.25;2.38;;;12.00;69.20;;;;;;5022155;28;20517;-78
2021/01/21 12:07:27;;;;;;;6.03;2.72;;;12.10;69.10;;;;;;5021017;28;20432;-79
2021/01/21 12:09:53;;;;;;;7.00;3.15;;;12.10;69.10;;;;;;5022660;28;20030;-79
2021/01/21 12:12:20;;;;;;;6.00;3.50;;;12.10;70.60;;;;;;5024151;28;20026;-77
2021/01/21 12:14:45;;;;;;;7.00;3.05;;;12.00;70.30;;;;;;5023876;28;20022;-74
2021/01/21 12:17:11;;;;;;;4.82;3.20;;;12.10;69.70;;;;;;5023407;28;20042;-75
2021/01/21 12:19:36;;;;;;;6.32;3.90;;;12.10;70.80;;;;;;5033269;28;20045;-76
2021/01/21 12:22:02;;;;;;;1.90;1.50;;;12.20;70.40;;;;;;5042318;28;20030;-77
2021/01/21 12:24:28;;;;;;;10.43;2.60;;;12.30;69.40;;;;;;5045333;28;20041;-76
2021/01/21 12:26:56;;;;;;;4.30;2.22;;;;;;;;;;5024203;28;20030;-76
2021/01/21 12:29:21;;;;;;;7.35;4.18;;;12.50;67.90;;;;;;5044653;28;20025;-76
2021/01/21 12:31:47;;;;;;;4.63;2.22;;;12.40;68.60;;;;;;5044723;28;20478;-75
2021/01/21 12:34:12;;;;;;;6.40;2.72;;;12.50;68.20;;;;;;5043340;28;20049;-75
2021/01/21 12:36:41;;;;;;;3.67;1.90;;;12.50;68.20;;;;;;5024271;28;20080;-76
2021/01/21 12:39:07;;;;;;;7.60;3.40;;;12.50;68.50;;;;;;5044569;28;20029;-75
2021/01/21 12:41:35;;;;;;;4.88;2.38;;;12.50;68.90;;;;;;5041796;28;20021;-74
2021/01/21 12:44:01;;;;;;;5.80;3.40;;;12.50;69.50;;;;;;5027094;28;20033;-78
2021/01/21 12:46:28;;;;;;;6.25;2.10;;;;;;;;;;5023706;28;20033;-75
2021/01/21 12:48:57;;;;;;;3.75;1.80;;;12.50;69.20;;;;;;5027907;28;20111;-75
2021/01/21 12:51:23;;;;;;;2.88;1.90;;;12.50;69.70;;;;;;5026736;28;20036;-78
2021/01/21 12:53:50;;;;;;;3.47;2.17;;;12.50;70.10;;;;;;5023918;28;20033;-78
2021/01/21 12:56:15;;;;;;;3.25;2.10;;;12.50;70.60;;;;;;5044987;28;20026;-74
2021/01/21 12:58:41;;;;;;;4.13;2.42;;;12.40;71.10;;;;;;5049283;28;20029;-76
2021/01/21 13:01:07;;;;;;;6.22;4.05;;;12.40;72.10;;;;;;5045550;28;20369;-78
2021/01/21 13:03:32;;;;;;;3.10;2.38;;;12.40;72.60;;;;;;5045373;28;20119;-74